Accueil
METAR-TAF:

METAR-TAF

Aéroports :

Albenga, Italie

Aéroport international de Villanova d'Albenga

latitude: 44-03N, longitude: 008-07E, altitude: 45 m

Observation

Le bulletin a été fait il y a 3 heures et 29 minutes, à 17:50 UTC
Vent 3 kt de direction variable
Température 15°C
Humidité 82%
Pression 1006 hPa
Visibilité 10 km ou plus
Nuages épars à une hauteur de 2500 ft, Cumulus congestus.
Nuages fragmentés à une hauteur de 7000 ft

METAR: LIMG 261750Z VRB03KT 9999 SCT025TCU BKN070 15/12 Q1006

Heure: 23:19 (21:19 UTC)


TAF: absent

Observations et prévisions météorologiques de plus de 4000 aéroports (messages METAR et TAF).

Les stations disponibles sont représentées par des disques jaunes et rouges sur la carte.

Passer la souris dessus pour voir le nom de la station.

Cliquer dessus pour voir les observations et prévisions météorologiques.

Pour changer de carte: cliquez sur les boutons verts avec une croix noire pour zoomer, sur le bouton vert avec un tiret pour effectuer un zoom arrière, ou sur les flèches vertes pour les cartes adjacentes.


METAR-TAF: